createdAt,value
2023-01-12T00:02:22.112Z,17.88
2023-01-12T00:04:50.371Z,21.25
2023-01-12T00:07:21.684Z,16.02
2023-01-12T00:09:50.397Z,14.25
2023-01-12T00:12:18.503Z,15.90
2023-01-12T00:14:47.980Z,15.90
2023-01-12T00:17:19.321Z,12.50
2023-01-12T00:19:54.899Z,14.93
2023-01-12T00:22:23.617Z,18.20
2023-01-12T00:24:52.695Z,26.27
2023-01-12T00:27:21.902Z,20.38
2023-01-12T00:29:51.442Z,22.60
2023-01-12T00:32:21.917Z,29.45
2023-01-12T00:34:50.103Z,19.45
2023-01-12T00:37:19.594Z,22.27
2023-01-12T00:40:02.017Z,18.35
2023-01-12T00:42:48.360Z,19.60
2023-01-12T00:45:24.701Z,17.05
2023-01-12T00:47:53.476Z,18.92
2023-01-12T00:50:21.650Z,19.27
2023-01-12T00:52:49.769Z,18.92
2023-01-12T00:55:18.007Z,21.27
2023-01-12T00:57:46.088Z,17.50
2023-01-12T01:00:15.262Z,19.02
2023-01-12T01:02:44.893Z,20.80
2023-01-12T01:05:13.154Z,16.15
2023-01-12T01:07:41.298Z,16.75
2023-01-12T01:10:10.481Z,15.82
2023-01-12T01:12:38.589Z,24.23
2023-01-12T01:15:07.524Z,21.45
2023-01-12T01:17:35.818Z,21.45
2023-01-12T01:20:06.295Z,17.73
2023-01-12T01:22:34.424Z,22.30
2023-01-12T01:25:02.589Z,19.48
2023-01-12T01:27:30.699Z,24.25
2023-01-12T01:29:58.837Z,25.08
2023-01-12T01:32:26.946Z,25.65
2023-01-12T01:34:55.079Z,20.23
2023-01-12T01:37:24.642Z,21.65
2023-01-12T01:39:52.809Z,20.52
2023-01-12T01:42:28.964Z,20.98
2023-01-12T01:45:00.530Z,19.50
2023-01-12T01:47:36.184Z,20.77
2023-01-12T01:50:08.140Z,18.60
2023-01-12T01:52:40.712Z,21.50
2023-01-12T01:55:12.005Z,17.33
2023-01-12T01:57:44.817Z,19.83
2023-01-12T02:02:44.173Z,19.58
2023-01-12T02:05:14.101Z,16.95
2023-01-12T02:07:44.874Z,19.67
2023-01-12T02:10:15.118Z,21.55
2023-01-12T02:13:01.319Z,23.40
2023-01-12T02:15:51.826Z,21.77
2023-01-12T02:18:28.546Z,24.75
2023-01-12T02:21:11.138Z,22.08
2023-01-12T02:24:12.470Z,23.10
2023-01-12T02:27:14.502Z,26.70
2023-01-12T02:30:04.296Z,33.85
2023-01-12T02:32:43.169Z,32.75
2023-01-12T02:35:23.408Z,34.58
2023-01-12T02:37:58.798Z,38.53
2023-01-12T02:40:33.343Z,36.42
2023-01-12T02:43:07.179Z,33.63
2023-01-12T02:45:46.161Z,45.17
2023-01-12T02:48:23.241Z,50.03
2023-01-12T02:50:56.421Z,47.65
2023-01-12T02:53:43.349Z,46.35
2023-01-12T02:56:14.953Z,53.97
2023-01-12T02:58:47.997Z,47.42
2023-01-12T03:01:18.214Z,44.67
2023-01-12T03:03:49.196Z,46.05
2023-01-12T03:06:18.941Z,43.15
2023-01-12T03:08:50.372Z,46.45
2023-01-12T03:11:20.387Z,40.88
2023-01-12T03:13:52.050Z,40.92
2023-01-12T03:16:22.847Z,40.10
2023-01-12T03:18:57.717Z,50.08
2023-01-12T03:21:30.656Z,36.60
2023-01-12T03:24:04.704Z,37.80
2023-01-12T03:26:37.223Z,34.92
2023-01-12T03:29:09.407Z,40.13
2023-01-12T03:31:38.137Z,30.58
2023-01-12T03:34:07.811Z,32.00
2023-01-12T03:36:46.745Z,30.73
2023-01-12T03:39:23.167Z,28.30
2023-01-12T03:41:58.613Z,25.33
2023-01-12T03:44:32.537Z,23.50
2023-01-12T03:47:06.256Z,24.40
2023-01-12T03:49:41.291Z,21.45
2023-01-12T03:52:11.948Z,22.42
2023-01-12T03:54:43.569Z,25.92
2023-01-12T03:57:13.362Z,22.85
2023-01-12T03:59:42.217Z,22.70
2023-01-12T04:02:10.419Z,21.52
2023-01-12T04:04:40.332Z,30.85
2023-01-12T04:07:08.533Z,22.08
2023-01-12T04:09:37.679Z,22.35
2023-01-12T04:12:12.333Z,26.33
2023-01-12T04:14:41.022Z,25.42
2023-01-12T04:17:10.547Z,25.52
2023-01-12T04:19:40.143Z,25.98
2023-01-12T04:22:26.501Z,28.08
2023-01-12T04:24:54.701Z,30.20
2023-01-12T04:27:22.829Z,26.08
2023-01-12T04:29:50.980Z,24.58
2023-01-12T04:32:19.122Z,25.55
2023-01-12T04:34:48.827Z,25.15
2023-01-12T04:37:17.124Z,24.85
2023-01-12T04:39:45.251Z,30.20
2023-01-12T04:42:27.146Z,26.75
2023-01-12T04:44:55.257Z,31.40
2023-01-12T04:47:23.412Z,29.80
2023-01-12T04:49:52.953Z,31.17
2023-01-12T04:52:21.060Z,29.52
2023-01-12T04:54:49.178Z,31.45
2023-01-12T04:57:17.329Z,32.95
2023-01-12T04:59:45.905Z,32.08
2023-01-12T05:02:14.048Z,32.80
2023-01-12T05:04:42.732Z,31.33
2023-01-12T05:07:12.276Z,31.63
2023-01-12T05:10:12.372Z,28.77
2023-01-12T05:12:40.495Z,29.90
2023-01-12T05:15:09.741Z,35.47
2023-01-12T05:17:37.913Z,33.78
2023-01-12T05:20:06.841Z,28.38
2023-01-12T05:22:36.371Z,29.70
2023-01-12T05:25:04.661Z,29.38
2023-01-12T05:27:32.756Z,34.10
2023-01-12T05:30:00.901Z,32.75
2023-01-12T05:32:29.011Z,33.72
2023-01-12T05:34:57.126Z,31.05
2023-01-12T05:37:25.297Z,30.50
2023-01-12T05:39:54.850Z,25.15
2023-01-12T05:42:40.245Z,27.70
2023-01-12T05:45:09.753Z,29.23
2023-01-12T05:47:38.006Z,24.40
2023-01-12T05:50:07.225Z,27.13
2023-01-12T05:52:35.307Z,26.38
2023-01-12T05:55:05.018Z,30.70
2023-01-12T05:57:33.106Z,30.05
2023-01-12T06:00:01.288Z,30.45
2023-01-12T06:02:29.725Z,28.60
2023-01-12T06:04:57.947Z,27.90
2023-01-12T06:07:26.097Z,30.75
2023-01-12T06:09:54.264Z,25.65
2023-01-12T06:12:41.493Z,27.08
2023-01-12T06:15:10.557Z,29.92
2023-01-12T06:17:38.700Z,28.42
2023-01-12T06:20:08.236Z,28.95
2023-01-12T06:22:36.457Z,35.47
2023-01-12T06:25:04.622Z,28.25
2023-01-12T09:55:49.273Z,28.10
2023-01-12T09:58:30.512Z,24.42
2023-01-12T10:01:00.520Z,22.98
2023-01-12T10:03:35.613Z,24.02
2023-01-12T10:06:03.922Z,16.40
2023-01-12T10:08:36.267Z,16.00
2023-01-12T10:11:15.398Z,16.58
2023-01-12T10:14:33.294Z,19.10
2023-01-12T10:17:24.040Z,19.35
2023-01-12T10:19:59.246Z,18.13
2023-01-12T10:22:40.074Z,16.27
2023-01-12T10:25:27.053Z,15.90
2023-01-12T10:27:58.130Z,14.43
2023-01-12T10:30:30.797Z,14.43
2023-01-12T10:35:27.403Z,17.25
2023-01-12T10:37:56.677Z,15.95
2023-01-12T10:40:29.926Z,15.95
2023-01-12T10:43:21.888Z,20.73
2023-01-12T10:46:07.675Z,17.92
2023-01-12T10:48:36.387Z,21.38
2023-01-12T10:51:06.747Z,20.25
2023-01-12T10:53:42.539Z,19.90
2023-01-12T10:56:21.042Z,21.30
2023-01-12T10:58:56.191Z,19.35
2023-01-12T11:01:24.521Z,19.67
2023-01-12T11:03:52.740Z,15.77
2023-01-12T11:06:27.197Z,19.10
2023-01-12T11:08:56.094Z,23.13
2023-01-12T11:11:31.758Z,20.10
2023-01-12T11:14:03.960Z,19.25
2023-01-12T11:16:35.826Z,16.77
2023-01-12T11:19:18.104Z,18.17
2023-01-12T11:21:52.795Z,22.65
2023-01-12T11:24:42.552Z,21.63
2023-01-12T11:27:18.745Z,20.23
2023-01-12T11:29:57.787Z,16.58
2023-01-12T11:32:34.049Z,18.70
2023-01-12T11:35:09.912Z,17.02
2023-01-12T11:37:42.776Z,16.23
2023-01-12T11:40:22.980Z,14.25
2023-01-12T11:43:10.036Z,15.45
2023-01-12T11:45:47.744Z,20.92
2023-01-12T11:48:25.084Z,18.45
2023-01-12T11:50:55.196Z,14.23
2023-01-12T11:53:25.864Z,15.20
2023-01-12T11:56:08.884Z,15.57
2023-01-12T11:58:50.565Z,18.02
2023-01-12T12:01:24.491Z,19.80
2023-01-12T12:04:01.715Z,17.02
2023-01-12T12:06:47.120Z,19.17
2023-01-12T12:09:37.119Z,20.10
2023-01-12T12:12:10.671Z,18.65
2023-01-12T12:15:05.088Z,18.40
2023-01-12T12:17:46.491Z,18.63
2023-01-12T12:20:21.885Z,21.00
2023-01-12T12:23:04.104Z,21.75
2023-01-12T12:25:46.006Z,20.50
2023-01-12T12:28:46.376Z,19.05
2023-01-12T12:31:34.620Z,28.70
2023-01-12T12:34:21.810Z,25.55
2023-01-12T12:36:58.223Z,22.40
2023-01-12T12:39:46.549Z,21.27
2023-01-12T12:42:45.987Z,27.92
2023-01-12T12:45:22.037Z,21.30
2023-01-12T12:48:04.936Z,17.80
2023-01-12T12:50:39.862Z,18.23
2023-01-12T12:53:25.876Z,15.73
2023-01-12T12:55:56.498Z,18.65
2023-01-12T12:58:43.004Z,19.50
2023-01-12T13:01:56.752Z,23.02
2023-01-12T13:04:55.053Z,17.75
2023-01-12T13:07:24.857Z,17.38
2023-01-12T13:10:03.656Z,19.02
2023-01-12T13:12:34.114Z,17.75
2023-01-12T13:15:32.581Z,15.60
2023-01-12T13:18:00.928Z,16.60
2023-01-12T13:20:52.757Z,15.15
2023-01-12T13:23:53.225Z,17.30
2023-01-12T13:26:52.465Z,10.55
2023-01-12T13:29:50.463Z,13.25
2023-01-12T13:32:52.233Z,11.77
2023-01-12T13:36:05.255Z,13.73
2023-01-12T13:38:47.431Z,13.48
2023-01-12T13:41:35.192Z,13.45
2023-01-12T13:44:03.771Z,17.20
2023-01-12T13:46:37.094Z,17.67
2023-01-12T13:49:25.239Z,22.70
2023-01-12T13:51:58.519Z,23.85
2023-01-12T13:54:28.527Z,21.60
2023-01-12T13:56:59.939Z,19.27
2023-01-12T13:59:30.182Z,20.25
2023-01-12T14:01:59.314Z,23.33
2023-01-12T14:04:48.891Z,21.60
2023-01-12T14:07:29.251Z,18.70
2023-01-12T14:10:15.004Z,18.83
2023-01-12T14:13:16.321Z,16.75
2023-01-12T14:16:02.482Z,15.05
2023-01-12T14:18:42.085Z,16.42
2023-01-12T14:21:23.527Z,17.88
2023-01-12T14:23:51.810Z,20.90
2023-01-12T14:26:25.868Z,14.52
2023-01-12T14:28:54.527Z,16.55
2023-01-12T14:31:28.816Z,12.50
2023-01-12T14:33:59.280Z,13.77
2023-01-12T14:36:30.980Z,17.10
2023-01-12T14:39:00.727Z,22.27
2023-01-12T14:41:49.188Z,15.10
2023-01-12T14:44:39.654Z,13.40
2023-01-12T14:47:08.219Z,13.55
2023-01-12T14:49:37.885Z,15.13
2023-01-12T14:52:24.425Z,12.45
2023-01-12T14:54:53.414Z,17.30
2023-01-12T14:57:27.705Z,19.95
2023-01-12T14:59:56.253Z,16.73
2023-01-12T15:02:32.788Z,21.38
2023-01-12T15:05:04.243Z,18.92
2023-01-12T15:07:35.820Z,19.40
2023-01-12T15:10:24.249Z,23.08
2023-01-12T15:12:57.015Z,19.10
2023-01-12T15:18:14.244Z,22.10
2023-01-12T15:21:02.260Z,20.15
2023-01-12T15:23:50.616Z,23.60
2023-01-12T15:26:19.010Z,26.25
2023-01-12T15:28:48.825Z,21.33
2023-01-12T15:31:20.395Z,35.47
2023-01-12T15:33:48.719Z,31.02
2023-01-12T15:36:17.165Z,28.88
2023-01-12T15:38:45.355Z,22.35
2023-01-12T15:41:18.671Z,25.70
2023-01-12T15:43:48.163Z,20.77
2023-01-12T15:46:20.351Z,22.95
2023-01-12T15:48:48.494Z,21.92
2023-01-12T15:51:17.202Z,23.48
2023-01-12T15:53:45.652Z,16.95
2023-01-12T15:56:16.463Z,22.33
2023-01-12T15:58:44.614Z,22.65
2023-01-12T16:01:17.921Z,18.50
2023-01-12T16:04:05.222Z,24.35
2023-01-12T16:06:35.250Z,23.00
2023-01-12T16:09:03.511Z,23.60
2023-01-12T16:11:31.710Z,31.65
2023-01-12T16:13:59.838Z,21.73
2023-01-12T16:16:29.684Z,26.02
2023-01-12T16:18:58.727Z,24.70
2023-01-12T16:21:29.136Z,20.92
2023-01-12T16:23:58.057Z,29.35
2023-01-12T16:26:27.146Z,20.45
2023-01-12T16:28:55.337Z,20.60
2023-01-12T16:31:23.508Z,20.85
2023-01-12T16:33:53.088Z,22.48
2023-01-12T16:36:21.576Z,25.42
2023-01-12T16:38:52.123Z,17.70
2023-01-12T16:41:22.403Z,15.95
2023-01-12T16:43:50.742Z,20.40
2023-01-12T16:46:18.945Z,22.65
2023-01-12T16:48:47.188Z,30.90
2023-01-12T16:51:18.133Z,25.35
2023-01-12T16:53:48.480Z,30.45
2023-01-12T16:56:17.980Z,33.13
2023-01-12T16:58:48.533Z,35.75
2023-01-12T17:01:18.816Z,39.53
2023-01-12T17:03:47.102Z,37.80
2023-01-12T17:06:19.182Z,44.38
2023-01-12T17:08:47.412Z,43.40
2023-01-12T17:11:19.340Z,51.70
2023-01-12T17:13:52.359Z,36.72
2023-01-12T17:16:21.126Z,46.83
2023-01-12T17:18:51.033Z,44.03
2023-01-12T17:21:21.841Z,49.72
2023-01-12T17:23:50.061Z,52.63
2023-01-12T17:26:20.219Z,47.72
2023-01-12T17:28:48.963Z,57.92
2023-01-12T17:31:20.680Z,48.15
2023-01-12T17:33:50.266Z,52.65
2023-01-12T17:36:20.445Z,48.30
2023-01-12T17:38:48.571Z,49.67
2023-01-12T17:41:31.864Z,54.30
2023-01-12T17:44:01.478Z,57.65
2023-01-12T17:46:29.908Z,55.38
2023-01-12T17:48:58.979Z,63.83
2023-01-12T17:51:29.281Z,61.03
2023-01-12T17:53:58.126Z,57.08
2023-01-12T17:56:27.309Z,56.20
2023-01-12T17:58:56.401Z,63.85
2023-01-12T18:01:29.425Z,57.05
2023-01-12T18:03:58.646Z,57.45
2023-01-12T18:06:28.506Z,57.63
2023-01-12T18:08:59.570Z,40.20
2023-01-12T18:11:28.676Z,40.13
2023-01-12T18:13:57.109Z,32.05
2023-01-12T18:16:25.681Z,34.92
2023-01-12T18:18:55.430Z,34.75
2023-01-12T18:21:25.502Z,44.13
2023-01-12T18:23:56.904Z,50.75
2023-01-12T18:26:27.203Z,54.33
2023-01-12T18:28:57.814Z,59.22
2023-01-12T18:31:28.716Z,57.50
2023-01-12T18:33:59.275Z,63.28
2023-01-12T18:36:27.713Z,52.70
2023-01-12T18:38:57.269Z,56.85
2023-01-12T18:41:43.433Z,51.92
2023-01-12T18:44:15.349Z,43.42
2023-01-12T18:47:02.383Z,46.70
2023-01-12T18:49:32.595Z,54.15
2023-01-12T18:52:19.311Z,68.32
2023-01-12T18:54:53.492Z,57.05
2023-01-12T18:57:24.819Z,60.95
2023-01-12T18:59:56.045Z,57.47
2023-01-12T19:02:24.694Z,53.63
2023-01-12T19:05:18.303Z,51.05
2023-01-12T19:08:01.140Z,49.17
2023-01-12T19:10:32.605Z,50.58
2023-01-12T19:13:18.507Z,52.20
2023-01-12T19:16:04.364Z,46.08
2023-01-12T19:18:32.992Z,32.83
2023-01-12T19:21:18.311Z,39.63
2023-01-12T19:24:05.586Z,39.15
2023-01-12T19:26:52.494Z,45.80
2023-01-12T19:29:20.990Z,39.60
2023-01-12T19:31:49.838Z,43.35
2023-01-12T19:34:19.443Z,44.10
2023-01-12T19:36:50.191Z,48.83
2023-01-12T19:39:27.161Z,52.80
2023-01-12T19:42:20.114Z,48.13
2023-01-12T19:44:49.191Z,44.58
2023-01-12T19:47:17.666Z,50.75
2023-01-12T19:49:46.755Z,49.03
2023-01-12T19:52:15.532Z,54.58
2023-01-12T19:54:44.351Z,56.50
2023-01-12T19:57:15.388Z,44.67
2023-01-12T19:59:44.984Z,40.17
2023-01-12T20:02:14.293Z,40.50
2023-01-12T20:04:42.876Z,29.25
2023-01-12T20:07:11.840Z,35.15
2023-01-12T20:09:40.449Z,33.47
2023-01-12T20:12:09.830Z,31.27
2023-01-12T20:14:40.208Z,25.15
2023-01-12T20:17:09.073Z,25.85
2023-01-12T20:19:37.642Z,23.38
2023-01-12T20:22:05.911Z,23.90
2023-01-12T20:24:34.573Z,28.30
2023-01-12T20:27:04.036Z,24.92
2023-01-12T20:29:34.659Z,35.53
2023-01-12T20:32:05.103Z,31.92
2023-01-12T20:34:33.686Z,59.55
2023-01-12T20:37:02.870Z,28.50
2023-01-12T20:39:31.889Z,22.92
2023-01-12T20:42:00.236Z,29.30
2023-01-12T20:44:29.461Z,25.27
2023-01-12T20:46:58.086Z,31.05
2023-01-12T20:49:27.725Z,33.28
2023-01-12T20:51:55.944Z,36.95
2023-01-12T20:54:24.370Z,43.05
2023-01-12T20:56:52.732Z,42.67
2023-01-12T20:59:21.129Z,37.83
2023-01-12T21:01:49.653Z,34.92
2023-01-12T21:04:19.515Z,43.05
2023-01-12T21:06:49.987Z,36.97
2023-01-12T21:09:24.299Z,33.90
2023-01-12T21:11:52.573Z,39.22
2023-01-12T21:14:22.494Z,40.03
2023-01-12T21:16:50.984Z,38.63
2023-01-12T21:19:19.246Z,43.85
2023-01-12T21:21:48.794Z,46.90
2023-01-12T21:24:16.895Z,46.00
2023-01-12T21:26:45.102Z,40.50
2023-01-12T21:29:13.440Z,39.60
2023-01-12T21:31:41.703Z,43.63
2023-01-12T21:34:09.870Z,41.88
2023-01-12T21:36:38.048Z,39.78
2023-01-12T21:39:07.648Z,41.05
2023-01-12T21:41:56.611Z,42.55
2023-01-12T21:44:23.738Z,47.88
2023-01-12T21:46:51.904Z,47.13
2023-01-12T21:49:20.139Z,39.72
2023-01-12T21:51:48.245Z,45.13
2023-01-12T21:54:19.063Z,41.42
2023-01-12T21:56:47.192Z,37.75
2023-01-12T21:59:15.344Z,38.63
2023-01-12T22:01:43.614Z,37.90
2023-01-12T22:04:11.858Z,35.85
2023-01-12T22:06:40.242Z,39.10
2023-01-12T22:09:08.486Z,36.05
2023-01-12T22:11:38.036Z,37.63
2023-01-12T22:14:06.208Z,37.97
2023-01-12T22:16:34.448Z,31.20
2023-01-12T22:19:03.933Z,39.90
2023-01-12T22:21:32.124Z,35.63
2023-01-12T22:24:00.259Z,39.83
2023-01-12T22:26:30.578Z,48.75
2023-01-12T22:29:00.801Z,44.53
2023-01-12T22:31:29.157Z,43.13
2023-01-12T22:34:02.795Z,44.58
2023-01-12T22:36:34.624Z,40.97
2023-01-12T22:39:03.260Z,40.85
2023-01-12T22:41:31.448Z,43.20
2023-01-12T22:44:01.337Z,38.75
2023-01-12T22:46:29.762Z,36.83
2023-01-12T22:49:00.660Z,36.65
2023-01-12T22:51:29.868Z,43.20
2023-01-12T22:53:58.383Z,42.13
2023-01-12T22:56:26.973Z,48.85
2023-01-12T22:58:58.102Z,37.72
2023-01-12T23:01:28.098Z,38.38
2023-01-12T23:03:57.469Z,37.47
2023-01-12T23:06:26.978Z,38.80
2023-01-12T23:08:55.575Z,44.47
2023-01-12T23:11:25.789Z,35.65
2023-01-12T23:13:54.508Z,35.17
2023-01-12T23:16:22.956Z,40.67
2023-01-12T23:18:52.748Z,37.53
2023-01-12T23:21:22.701Z,39.22
2023-01-12T23:23:52.787Z,33.30
2023-01-12T23:26:23.869Z,28.67
2023-01-12T23:28:54.297Z,30.63
2023-01-12T23:31:24.111Z,32.38
2023-01-12T23:33:53.800Z,31.75
2023-01-12T23:36:23.855Z,30.33
2023-01-12T23:38:54.116Z,35.80
2023-01-12T23:41:24.800Z,31.20
2023-01-12T23:43:56.416Z,31.65
2023-01-12T23:46:25.508Z,33.80
2023-01-12T23:48:56.693Z,35.85
2023-01-12T23:51:26.666Z,31.88
2023-01-12T23:53:55.331Z,35.92
2023-01-12T23:56:24.287Z,41.38
2023-01-12T23:58:52.499Z,33.63
